Time;durP1;ratioP1;P1;durP2;ratioP2;P2;SDS_P1;SDS_P2;PMS_P1;PMS_P2;Temp;Humidity;BMP_temperature;BMP_pressure;BME280_temperature;BME280_humidity;BME280_pressure;Samples;Min_cycle;Max_cycle;Signal;HPM_P1;HPM_P2
2021/04/27 00:00:42;;;;;;;2.40;1.77;;;5.00;37.20;;;;;;5037772;28;20832;-78
2021/04/27 00:03:19;;;;;;;3.10;2.10;;;4.90;37.10;;;;;;5043410;28;20481;-78
2021/04/27 00:05:59;;;;;;;3.13;2.10;;;4.80;37.30;;;;;;5043864;28;20549;-79
2021/04/27 00:08:34;;;;;;;2.53;1.87;;;5.00;37.10;;;;;;5036212;28;20511;-79
2021/04/27 00:11:10;;;;;;;2.47;1.90;;;5.00;36.90;;;;;;5041426;28;20445;-79
2021/04/27 00:13:45;;;;;;;4.20;2.47;;;5.00;37.00;;;;;;5038967;28;20866;-79
2021/04/27 00:16:20;;;;;;;2.10;1.70;;;4.90;37.00;;;;;;5045508;28;20460;-80
2021/04/27 00:18:56;;;;;;;3.13;2.20;;;4.80;37.00;;;;;;5040489;28;20460;-80
2021/04/27 00:21:31;;;;;;;5.63;1.90;;;4.80;37.00;;;;;;5041952;28;20453;-79
2021/04/27 00:24:14;;;;;;;2.43;1.90;;;4.80;37.10;;;;;;5037710;28;20480;-78
2021/04/27 00:26:50;;;;;;;3.50;2.10;;;4.90;37.50;;;;;;5039055;28;20541;-80
2021/04/27 00:29:25;;;;;;;7.40;2.27;;;4.60;37.00;;;;;;5038372;28;20550;-79
2021/04/27 00:32:00;;;;;;;3.97;2.07;;;4.60;37.20;;;;;;5039269;28;20459;-81
2021/04/27 00:34:35;;;;;;;2.80;1.90;;;4.40;37.30;;;;;;5033299;28;20560;-81
2021/04/27 00:37:10;;;;;;;5.77;1.87;;;4.60;37.40;;;;;;5037260;28;20445;-78
2021/04/27 00:39:45;;;;;;;2.57;1.87;;;4.60;37.20;;;;;;5038330;28;20464;-80
2021/04/27 00:42:29;;;;;;;2.03;1.70;;;4.40;37.20;;;;;;5036623;28;20469;-79
2021/04/27 00:45:07;;;;;;;3.33;1.97;;;4.50;37.40;;;;;;5038075;28;20505;-78
2021/04/27 00:50:31;;;;;;;5.00;1.80;;;4.50;37.30;;;;;;5034163;28;20481;-79
2021/04/27 00:53:08;;;;;;;1.50;1.30;;;4.40;37.20;;;;;;5041464;28;20468;-79
2021/04/27 00:55:43;;;;;;;3.37;2.10;;;4.40;37.30;;;;;;5040120;28;20462;-78
2021/04/27 00:58:19;;;;;;;2.47;2.17;;;4.20;37.30;;;;;;5037403;28;20457;-78
2021/04/27 01:00:58;;;;;;;6.00;1.90;;;4.30;37.40;;;;;;5037300;28;20453;-79
2021/04/27 01:03:33;;;;;;;4.13;2.13;;;4.40;37.30;;;;;;5036803;28;20973;-79
2021/04/27 01:06:08;;;;;;;3.50;1.67;;;4.30;37.30;;;;;;5036822;28;20935;-79
2021/04/27 01:08:51;;;;;;;3.70;1.83;;;4.30;37.30;;;;;;5035937;28;20448;-78
2021/04/27 01:11:34;;;;;;;5.63;2.20;;;4.20;37.30;;;;;;5038455;28;20984;-79
2021/04/27 01:14:16;;;;;;;4.23;2.00;;;4.10;37.50;;;;;;5040819;28;20444;-80
2021/04/27 01:16:57;;;;;;;2.90;2.00;;;4.00;37.40;;;;;;5033783;28;20454;-78
2021/04/27 01:19:38;;;;;;;3.23;1.90;;;4.20;37.30;;;;;;5033503;28;20450;-79
2021/04/27 01:22:17;;;;;;;3.00;1.53;;;4.00;37.40;;;;;;5035200;28;20482;-78
2021/04/27 01:24:58;;;;;;;1.97;1.77;;;4.00;37.40;;;;;;5031201;28;20484;-79
2021/04/27 01:27:37;;;;;;;3.90;2.37;;;3.90;37.40;;;;;;5034821;28;20450;-78
2021/04/27 01:30:12;;;;;;;1.73;1.63;;;4.10;37.30;;;;;;5030792;28;20477;-77
2021/04/27 01:32:48;;;;;;;4.70;2.10;;;4.20;37.10;;;;;;5035370;28;20449;-78
2021/04/27 01:35:22;;;;;;;3.30;2.23;;;4.10;37.10;;;;;;5036102;28;20464;-77
2021/04/27 01:37:58;;;;;;;2.87;2.17;;;4.20;37.20;;;;;;5031520;28;20472;-80
2021/04/27 01:40:33;;;;;;;2.90;2.70;;;4.10;36.90;;;;;;5035701;28;20547;-79
2021/04/27 01:43:09;;;;;;;2.57;2.03;;;4.20;36.90;;;;;;5033203;28;20500;-77
2021/04/27 01:45:44;;;;;;;1.83;1.30;;;4.20;37.10;;;;;;5035079;28;20544;-77
2021/04/27 01:48:16;;;;;;;2.13;1.67;;;4.10;37.00;;;;;;5037195;28;20499;-77
2021/04/27 01:50:51;;;;;;;2.67;2.10;;;4.20;36.90;;;;;;5032740;28;20481;-78
2021/04/27 01:53:24;;;;;;;4.60;2.03;;;4.30;36.70;;;;;;5037059;28;20455;-78
2021/04/27 01:55:59;;;;;;;3.17;1.70;;;4.10;36.70;;;;;;5037591;28;20503;-78
2021/04/27 01:58:35;;;;;;;2.30;1.80;;;4.10;36.80;;;;;;5037878;28;20465;-81
2021/04/27 02:01:10;;;;;;;2.40;1.90;;;4.00;36.80;;;;;;5034567;28;20449;-78
2021/04/27 02:03:50;;;;;;;4.60;2.80;;;4.10;36.80;;;;;;5032943;28;20476;-79
2021/04/27 02:06:25;;;;;;;5.83;1.90;;;4.10;36.70;;;;;;5035264;28;20449;-77
2021/04/27 02:09:07;;;;;;;2.80;1.67;;;4.20;36.60;;;;;;5036381;28;20468;-77
2021/04/27 02:11:44;;;;;;;3.77;1.87;;;4.10;36.50;;;;;;5031180;28;20466;-76
2021/04/27 02:14:20;;;;;;;3.10;1.80;;;3.90;36.70;;;;;;5037371;28;20445;-77
2021/04/27 02:17:02;;;;;;;4.73;1.97;;;4.00;36.70;;;;;;5037407;28;20460;-78
2021/04/27 02:19:43;;;;;;;3.23;2.00;;;4.00;36.80;;;;;;5036708;28;20473;-77
2021/04/27 02:22:19;;;;;;;3.63;2.00;;;4.00;36.70;;;;;;5031145;28;20545;-77
2021/04/27 02:24:54;;;;;;;3.23;1.87;;;4.00;36.80;;;;;;5037059;28;20454;-76
2021/04/27 02:27:38;;;;;;;3.50;2.20;;;4.00;37.00;;;;;;5037420;28;20477;-77
2021/04/27 02:30:21;;;;;;;5.23;2.20;;;4.00;36.70;;;;;;5037997;28;20500;-78
2021/04/27 02:32:57;;;;;;;4.13;1.67;;;4.00;36.60;;;;;;5032941;28;20541;-76
2021/04/27 02:35:33;;;;;;;2.70;1.70;;;3.90;36.60;;;;;;5037668;28;20457;-78
2021/04/27 02:38:13;;;;;;;2.43;1.97;;;3.90;36.60;;;;;;5036342;28;20522;-77
2021/04/27 02:40:52;;;;;;;5.03;2.20;;;4.00;36.70;;;;;;5038884;28;20459;-80
2021/04/27 02:43:28;;;;;;;2.90;2.20;;;3.80;36.50;;;;;;5037634;28;20489;-78
2021/04/27 02:46:04;;;;;;;2.30;2.00;;;3.90;36.70;;;;;;5039814;28;20450;-77
2021/04/27 02:48:44;;;;;;;3.97;1.80;;;3.80;36.70;;;;;;5034416;28;20980;-78
2021/04/27 02:51:20;;;;;;;2.43;1.60;;;3.80;36.80;;;;;;5035264;28;20457;-77
2021/04/27 02:53:55;;;;;;;2.93;2.40;;;3.80;36.80;;;;;;5036285;28;20460;-79
2021/04/27 02:56:30;;;;;;;3.13;2.23;;;3.70;36.70;;;;;;5036106;28;20445;-79
2021/04/27 02:59:05;;;;;;;4.10;1.80;;;3.60;36.70;;;;;;5033134;28;20462;-77
2021/04/27 03:01:41;;;;;;;2.47;1.93;;;3.60;36.80;;;;;;5034985;28;20472;-78
2021/04/27 03:04:16;;;;;;;3.73;2.20;;;3.50;36.90;;;;;;5035403;28;20465;-77
2021/04/27 03:06:51;;;;;;;2.43;1.60;;;3.50;37.10;;;;;;5036432;28;20818;-77
2021/04/27 03:09:34;;;;;;;2.47;1.80;;;3.60;37.00;;;;;;5035244;28;20490;-77
2021/04/27 03:12:10;;;;;;;2.90;2.20;;;3.60;36.90;;;;;;5038129;28;20453;-78
2021/04/27 03:14:45;;;;;;;3.20;1.93;;;3.60;37.00;;;;;;5034641;28;20925;-79
2021/04/27 03:17:22;;;;;;;3.30;1.93;;;3.40;37.00;;;;;;5041576;28;20461;-79
2021/04/27 03:19:57;;;;;;;4.27;1.90;;;3.40;37.30;;;;;;5042251;28;20474;-79
2021/04/27 03:22:32;;;;;;;5.67;2.40;;;3.40;37.20;;;;;;5042507;28;20521;-77
2021/04/27 03:25:08;;;;;;;2.80;2.07;;;3.50;37.10;;;;;;5037140;28;20470;-81
2021/04/27 03:27:43;;;;;;;3.87;2.07;;;3.50;37.20;;;;;;5033910;28;20460;-78
2021/04/27 03:30:19;;;;;;;3.37;1.97;;;3.40;37.10;;;;;;5035618;28;20471;-78
2021/04/27 03:32:55;;;;;;;3.77;2.20;;;3.30;37.10;;;;;;5035469;28;20453;-78
2021/04/27 03:35:30;;;;;;;2.17;1.90;;;3.60;37.30;;;;;;5035446;28;20516;-77
2021/04/27 03:38:05;;;;;;;6.63;2.00;;;3.50;37.20;;;;;;5040596;28;20465;-79
2021/04/27 03:40:40;;;;;;;2.90;2.30;;;3.40;37.30;;;;;;5040223;28;20460;-79
2021/04/27 03:43:15;;;;;;;3.53;2.40;;;3.40;37.50;;;;;;5039634;28;20455;-80
2021/04/27 03:45:58;;;;;;;3.67;2.37;;;3.40;37.40;;;;;;5033215;28;20817;-78
2021/04/27 03:48:32;;;;;;;3.93;2.20;;;3.40;37.40;;;;;;5037627;28;20486;-83
2021/04/27 03:51:07;;;;;;;2.53;2.00;;;3.40;37.30;;;;;;5038534;28;20475;-78
2021/04/27 03:53:42;;;;;;;3.90;2.03;;;3.40;37.40;;;;;;5036804;28;20548;-77
2021/04/27 03:56:16;;;;;;;4.03;2.70;;;3.40;37.40;;;;;;5035825;28;20454;-80
2021/04/27 03:58:52;;;;;;;3.73;2.40;;;3.40;37.40;;;;;;5036139;28;20864;-78
2021/04/27 04:01:28;;;;;;;2.97;2.10;;;3.30;37.40;;;;;;5038292;28;20568;-77
2021/04/27 04:04:04;;;;;;;2.60;2.30;;;3.40;37.50;;;;;;5037961;28;20571;-77
2021/04/27 04:06:38;;;;;;;3.90;2.60;;;3.40;37.50;;;;;;5027377;28;20464;-78
2021/04/27 04:09:15;;;;;;;4.67;2.10;;;3.40;37.60;;;;;;5031695;28;20479;-80
2021/04/27 04:11:49;;;;;;;4.03;2.27;;;3.40;37.50;;;;;;5032099;28;20457;-78
2021/04/27 04:14:24;;;;;;;2.97;2.53;;;3.40;37.60;;;;;;5031402;28;20488;-79
2021/04/27 04:16:59;;;;;;;3.00;1.87;;;3.50;37.60;;;;;;5028897;28;20460;-78
2021/04/27 04:19:40;;;;;;;4.47;3.00;;;3.50;37.50;;;;;;5030803;28;20450;-78
2021/04/27 04:22:12;;;;;;;5.10;2.40;;;3.60;37.50;;;;;;5027331;28;20453;-78
2021/04/27 04:24:47;;;;;;;3.97;2.60;;;3.80;37.60;;;;;;5029543;28;20469;-79
2021/04/27 04:27:22;;;;;;;4.40;2.40;;;4.70;37.50;;;;;;5028161;28;20484;-78
2021/04/27 04:29:57;;;;;;;2.90;2.60;;;4.50;36.50;;;;;;5028958;28;20473;-78
2021/04/27 04:32:32;;;;;;;3.73;2.23;;;4.70;36.60;;;;;;5030047;28;20446;-78
2021/04/27 04:35:08;;;;;;;3.33;2.23;;;4.20;36.60;;;;;;5022960;28;21091;-78
2021/04/27 04:37:42;;;;;;;3.50;2.63;;;4.20;37.10;;;;;;5030554;28;20469;-79
2021/04/27 04:40:18;;;;;;;3.53;2.20;;;4.10;37.00;;;;;;5027918;28;20484;-78
2021/04/27 04:42:53;;;;;;;4.00;2.80;;;4.10;37.00;;;;;;5029968;28;20561;-79
2021/04/27 04:45:29;;;;;;;5.17;2.20;;;4.10;37.10;;;;;;5030873;28;21000;-80
2021/04/27 04:48:03;;;;;;;6.63;2.83;;;4.10;37.10;;;;;;5026057;28;20453;-78
2021/04/27 04:50:39;;;;;;;3.57;3.23;;;4.40;37.10;;;;;;5024750;28;20469;-78
2021/04/27 04:53:14;;;;;;;7.27;2.90;;;4.50;37.00;;;;;;5027749;28;20459;-78
2021/04/27 04:55:49;;;;;;;3.77;2.63;;;4.70;36.90;;;;;;5033337;28;20457;-79
2021/04/27 04:58:24;;;;;;;7.27;3.10;;;4.90;36.80;;;;;;5030519;28;20785;-77
2021/04/27 05:00:59;;;;;;;9.83;3.23;;;4.60;36.60;;;;;;5030988;28;20467;-78
2021/04/27 05:03:33;;;;;;;4.67;3.20;;;4.50;36.80;;;;;;5029900;28;20492;-77
2021/04/27 05:06:12;;;;;;;4.37;2.97;;;4.60;36.80;;;;;;5029247;28;20551;-77
2021/04/27 05:08:50;;;;;;;5.60;3.13;;;4.70;36.90;;;;;;5029989;28;20454;-78
2021/04/27 05:11:25;;;;;;;4.63;2.60;;;4.90;37.00;;;;;;5025314;28;20461;-78
2021/04/27 05:14:00;;;;;;;9.20;3.97;;;5.10;36.70;;;;;;5028967;28;20446;-78
2021/04/27 05:16:36;;;;;;;9.33;3.20;;;5.20;36.40;;;;;;5033648;28;20464;-79
2021/04/27 05:19:11;;;;;;;4.50;3.20;;;5.20;36.60;;;;;;5027365;28;20474;-78
2021/04/27 05:21:47;;;;;;;6.33;3.20;;;5.00;36.40;;;;;;5026232;28;20481;-78
2021/04/27 05:24:22;;;;;;;3.97;2.83;;;5.80;36.90;;;;;;5025737;28;20952;-80
2021/04/27 05:26:54;;;;;;;3.87;2.60;;;5.70;36.40;;;;;;5026840;28;20457;-79
2021/04/27 05:29:30;;;;;;;2.87;2.63;;;6.20;36.20;;;;;;5027528;28;20478;-79
2021/04/27 05:32:06;;;;;;;4.10;3.10;;;7.10;36.10;;;;;;5025082;28;20488;-78
2021/04/27 05:34:41;;;;;;;8.07;4.13;;;7.20;35.50;;;;;;5027416;28;20493;-77
2021/04/27 05:37:17;;;;;;;5.70;3.30;;;6.50;35.70;;;;;;5026035;28;20507;-78
2021/04/27 05:39:51;;;;;;;5.03;3.33;;;7.80;36.50;;;;;;5025234;28;20857;-77
2021/04/27 05:42:26;;;;;;;4.23;3.00;;;8.40;35.50;;;;;;5030601;28;20462;-79
2021/04/27 05:45:01;;;;;;;6.17;3.30;;;8.70;35.30;;;;;;5029079;28;20454;-78
2021/04/27 05:47:36;;;;;;;3.40;3.00;;;7.30;34.40;;;;;;5028196;28;20520;-79
2021/04/27 05:50:12;;;;;;;4.63;3.50;;;8.40;35.70;;;;;;5027637;28;20572;-77
2021/04/27 05:52:48;;;;;;;4.60;3.17;;;8.60;35.20;;;;;;5025013;28;20454;-79
2021/04/27 05:55:23;;;;;;;4.13;3.30;;;6.10;34.40;;;;;;5028928;28;20457;-81
2021/04/27 05:57:58;;;;;;;7.53;3.70;;;5.80;36.20;;;;;;5025273;28;20496;-77
2021/04/27 06:00:33;;;;;;;5.50;3.27;;;5.40;36.40;;;;;;5023113;28;21587;-79
2021/04/27 06:03:05;;;;;;;17.27;4.00;;;5.60;36.70;;;;;;5028006;28;20528;-78
2021/04/27 06:05:40;;;;;;;24.03;5.67;;;5.30;36.70;;;;;;5027812;28;21157;-79
2021/04/27 06:08:16;;;;;;;50.00;8.83;;;5.40;36.90;;;;;;5031356;28;20476;-79
2021/04/27 06:10:50;;;;;;;7.07;3.27;;;5.30;36.80;;;;;;5027877;28;20475;-79
2021/04/27 06:13:25;;;;;;;19.43;5.40;;;5.50;37.30;;;;;;5028806;28;20524;-79
2021/04/27 06:16:00;;;;;;;10.53;5.10;;;5.50;36.90;;;;;;5026239;28;20452;-79
2021/04/27 06:18:35;;;;;;;26.60;7.27;;;5.70;37.00;;;;;;5034499;28;20453;-79
2021/04/27 06:21:10;;;;;;;7.17;4.17;;;5.90;37.10;;;;;;5033309;28;20485;-79
2021/04/27 06:23:46;;;;;;;12.27;4.73;;;6.20;36.90;;;;;;5026958;28;20486;-81
2021/04/27 06:26:21;;;;;;;6.63;4.63;;;6.20;36.70;;;;;;5038093;28;20451;-82
2021/04/27 06:28:56;;;;;;;5.20;3.93;;;6.60;36.80;;;;;;5043268;28;20469;-80
2021/04/27 06:31:37;;;;;;;8.27;4.00;;;6.60;36.60;;;;;;5046704;28;20446;-81
2021/04/27 06:34:12;;;;;;;4.70;4.20;;;6.90;36.50;;;;;;5038125;28;20465;-81
2021/04/27 06:36:52;;;;;;;7.03;4.93;;;7.00;36.30;;;;;;5037183;28;20465;-82
2021/04/27 06:39:36;;;;;;;6.60;4.00;;;6.90;36.00;;;;;;5034534;28;20515;-83
2021/04/27 06:42:12;;;;;;;4.40;3.90;;;7.10;36.10;;;;;;5034672;28;20502;-81
2021/04/27 06:44:47;;;;;;;7.00;4.07;;;7.00;36.00;;;;;;5042347;28;20480;-82
2021/04/27 06:47:29;;;;;;;7.03;5.30;;;7.50;36.10;;;;;;5038156;28;20453;-80
2021/04/27 06:50:03;;;;;;;8.63;4.37;;;7.50;36.40;;;;;;5044425;28;20471;-83
2021/04/27 06:52:48;;;;;;;6.43;4.90;;;7.20;36.10;;;;;;5036259;28;20449;-80
2021/04/27 06:55:44;;;;;;;5.17;4.30;;;7.30;35.80;;;;;;5048809;28;20214;-82
2021/04/27 06:58:25;;;;;;;8.00;4.70;;;7.40;36.10;;;;;;5047218;28;20820;-85
2021/04/27 07:01:27;;;;;;;7.95;5.20;;;7.50;35.90;;;;;;5039652;28;20508;-77
2021/04/27 07:04:10;;;;;;;5.23;4.73;;;7.70;36.10;;;;;;5045990;28;20205;-87
2021/04/27 07:06:44;;;;;;;8.52;5.22;;;7.60;35.70;;;;;;5031849;28;20472;-77
2021/04/27 07:09:25;;;;;;;5.10;4.57;;;7.60;35.90;;;;;;5040053;28;20207;-80
2021/04/27 07:12:01;;;;;;;5.07;4.57;;;8.20;36.20;;;;;;5041299;28;21102;-80
2021/04/27 07:14:39;;;;;;;5.40;4.60;;;7.80;35.50;;;;;;5042576;28;20458;-80
2021/04/27 07:17:14;;;;;;;5.67;4.33;;;7.80;35.80;;;;;;5040175;28;21291;-84
2021/04/27 07:20:15;;;;;;;6.37;4.30;;;8.20;35.70;;;;;;5039816;28;20454;-83
2021/04/27 07:22:49;;;;;;;8.33;4.70;;;8.30;35.60;;;;;;5040963;28;20525;-82
2021/04/27 07:25:24;;;;;;;6.30;4.63;;;8.80;36.00;;;;;;5036934;28;20469;-76
2021/04/27 07:28:00;;;;;;;4.60;4.20;;;8.60;35.70;;;;;;5036849;28;20925;-76
2021/04/27 07:30:35;;;;;;;6.13;5.30;;;8.60;35.80;;;;;;5033091;28;20489;-77
2021/04/27 07:33:11;;;;;;;10.20;4.40;;;8.80;35.80;;;;;;5036182;28;20466;-79
2021/04/27 07:35:46;;;;;;;6.70;4.60;;;8.30;35.20;;;;;;5041761;28;20451;-83
2021/04/27 07:38:39;;;;;;;7.20;5.05;;;8.80;35.90;;;;;;5040494;28;20447;-79
2021/04/27 07:41:15;;;;;;;6.20;5.53;;;9.10;35.70;;;;;;5037043;28;20250;-81
2021/04/27 07:43:51;;;;;;;6.83;5.70;;;8.80;35.70;;;;;;5036321;28;20953;-78
2021/04/27 07:46:26;;;;;;;5.60;4.30;;;8.80;35.60;;;;;;5040592;28;20822;-82
2021/04/27 07:49:00;;;;;;;7.40;5.07;;;9.00;35.70;;;;;;5039304;28;20480;-79
2021/04/27 07:51:36;;;;;;;8.30;5.10;;;9.10;35.60;;;;;;5036864;28;20458;-79
2021/04/27 07:54:12;;;;;;;5.80;4.90;;;9.60;35.90;;;;;;5032709;28;20506;-79
2021/04/27 07:56:47;;;;;;;10.87;5.23;;;9.80;35.80;;;;;;5035672;28;20467;-81
2021/04/27 07:59:34;;;;;;;8.93;5.47;;;9.90;35.60;;;;;;5033016;28;20454;-85
2021/04/27 08:02:20;;;;;;;8.17;5.10;;;9.90;35.70;;;;;;5039950;28;20476;-83
2021/04/27 08:04:56;;;;;;;6.40;5.00;;;9.90;35.50;;;;;;5053191;28;21068;-78
2021/04/27 08:07:31;;;;;;;12.63;5.30;;;9.50;35.30;;;;;;5039530;28;20458;-79
2021/04/27 08:10:07;;;;;;;7.30;5.53;;;9.20;35.70;;;;;;5041760;28;21016;-80
2021/04/27 08:12:39;;;;;;;7.00;4.80;;;9.40;35.70;;;;;;5040603;28;20457;-81
2021/04/27 08:15:15;;;;;;;8.77;4.67;;;9.80;36.10;;;;;;5042004;28;20447;-79
2021/04/27 08:17:52;;;;;;;6.10;5.30;;;9.60;35.80;;;;;;5040222;28;20986;-78
2021/04/27 08:20:27;;;;;;;9.90;6.10;;;9.80;36.10;;;;;;5037551;28;20982;-79
2021/04/27 08:23:02;;;;;;;8.20;5.67;;;9.90;36.10;;;;;;5038696;28;20485;-76
2021/04/27 08:25:37;;;;;;;6.23;5.63;;;10.10;35.10;;;;;;5036035;28;20451;-78
2021/04/27 08:28:13;;;;;;;9.40;5.60;;;10.20;35.10;;;;;;5040210;28;20572;-85
2021/04/27 08:30:56;;;;;;;7.67;5.50;;;10.30;35.10;;;;;;5053925;28;20466;-81
2021/04/27 08:33:34;;;;;;;5.87;5.20;;;10.10;35.10;;;;;;5042543;28;20451;-81
2021/04/27 08:36:10;;;;;;;9.10;5.40;;;10.70;35.30;;;;;;5040375;28;20500;-82
2021/04/27 08:38:52;;;;;;;8.57;6.03;;;10.70;35.00;;;;;;5040071;28;20450;-81
2021/04/27 08:41:41;;;;;;;8.10;6.22;;;10.20;34.70;;;;;;5042905;28;20541;-81
2021/04/27 08:44:19;;;;;;;7.70;6.47;;;10.40;35.00;;;;;;5041138;28;20449;-86
2021/04/27 08:46:55;;;;;;;9.07;6.30;;;10.60;35.00;;;;;;5041828;28;20451;-79
2021/04/27 08:49:30;;;;;;;6.57;5.83;;;10.90;35.10;;;;;;5041064;28;20263;-81
2021/04/27 08:52:06;;;;;;;6.30;5.70;;;11.10;34.90;;;;;;5039094;28;20539;-83
2021/04/27 08:54:40;;;;;;;8.07;6.17;;;10.70;34.70;;;;;;5030392;28;21150;-76
2021/04/27 08:57:15;;;;;;;10.03;5.90;;;11.10;35.20;;;;;;5030505;28;20457;-77
2021/04/27 08:59:47;;;;;;;6.93;5.30;;;11.20;34.90;;;;;;5033664;28;20477;-78
2021/04/27 09:02:31;;;;;;;7.43;6.50;;;11.30;34.60;;;;;;5037487;28;20454;-82
2021/04/27 09:05:07;;;;;;;6.40;5.80;;;11.10;34.50;;;;;;5035290;28;20540;-79
2021/04/27 09:07:48;;;;;;;7.10;5.80;;;11.60;35.00;;;;;;5036296;28;20453;-79
2021/04/27 09:10:26;;;;;;;9.43;6.73;;;11.40;34.20;;;;;;5033413;28;20542;-82
2021/04/27 09:13:03;;;;;;;7.27;6.27;;;11.40;34.50;;;;;;5032331;28;20461;-77
2021/04/27 09:15:44;;;;;;;9.47;6.23;;;11.60;34.70;;;;;;5036659;28;20446;-77
2021/04/27 09:18:33;;;;;;;6.70;6.10;;;11.10;34.40;;;;;;5035443;28;20509;-78
2021/04/27 09:21:10;;;;;;;8.27;5.90;;;11.60;34.60;;;;;;5035719;28;20447;-79
2021/04/27 09:23:50;;;;;;;10.87;5.77;;;11.10;34.40;;;;;;5034631;28;20530;-79
2021/04/27 09:26:26;;;;;;;8.93;6.10;;;11.70;34.90;;;;;;5035839;28;20505;-77
2021/04/27 09:29:03;;;;;;;7.03;5.73;;;11.80;34.80;;;;;;5031197;28;20494;-77
2021/04/27 09:31:41;;;;;;;8.50;6.47;;;12.20;35.10;;;;;;5027446;28;21006;-77
2021/04/27 09:34:42;;;;;;;6.80;6.10;;;12.10;34.80;;;;;;5034183;28;20927;-87
2021/04/27 09:37:24;;;;;;;7.50;5.87;;;11.90;34.60;;;;;;5082409;28;20188;-79
2021/04/27 09:40:10;;;;;;;7.33;6.30;;;12.60;34.90;;;;;;5043637;28;20461;-85
2021/04/27 09:43:25;;;;;;;9.13;6.50;;;12.80;34.70;;;;;;5047696;28;20529;-84
2021/04/27 09:46:07;;;;;;;6.97;6.00;;;12.70;34.60;;;;;;5051179;28;20455;-84
2021/04/27 09:48:54;;;;;;;11.00;6.73;;;13.10;34.70;;;;;;5049221;28;20461;-83
2021/04/27 09:51:30;;;;;;;8.23;6.13;;;12.60;34.10;;;;;;5037518;28;20502;-84
2021/04/27 09:54:08;;;;;;;8.20;6.60;;;12.80;34.00;;;;;;5039909;28;20505;-80
2021/04/27 09:56:48;;;;;;;7.37;6.10;;;12.60;33.90;;;;;;5041670;28;20473;-79
2021/04/27 09:59:31;;;;;;;10.48;6.80;;;12.80;34.10;;;;;;5038815;28;20485;-79
2021/04/27 10:02:13;;;;;;;9.47;7.30;;;12.90;34.20;;;;;;5039980;28;20441;-82
2021/04/27 10:04:54;;;;;;;6.20;5.50;;;13.30;34.30;;;;;;5040686;28;20453;-82
2021/04/27 10:07:31;;;;;;;12.33;7.03;;;13.20;33.80;;;;;;5040460;28;20447;-83
2021/04/27 10:10:06;;;;;;;6.65;6.05;;;13.20;34.60;;;;;;5033275;28;20446;-81
2021/04/27 10:12:41;;;;;;;8.57;6.40;;;14.00;34.80;;;;;;5032424;28;20203;-78
2021/04/27 10:15:17;;;;;;;8.17;7.00;;;13.40;33.90;;;;;;5036569;28;20444;-80
2021/04/27 10:17:53;;;;;;;6.43;5.80;;;13.80;34.10;;;;;;5040879;28;20451;-78
2021/04/27 10:20:28;;;;;;;7.20;6.50;;;13.20;33.30;;;;;;5041400;28;20461;-84
2021/04/27 10:23:13;;;;;;;7.95;6.40;;;12.90;33.70;;;;;;5045471;28;20445;-82
2021/04/27 10:25:54;;;;;;;11.50;7.00;;;13.50;34.30;;;;;;5043830;28;20988;-83
2021/04/27 10:29:02;;;;;;;7.30;6.40;;;14.20;34.40;;;;;;5042623;28;20516;-83
2021/04/27 10:31:41;;;;;;;9.13;5.60;;;14.00;33.80;;;;;;5040245;28;20479;-81
2021/04/27 10:34:18;;;;;;;6.63;5.93;;;13.90;34.00;;;;;;5046617;28;20474;-83
2021/04/27 10:37:18;;;;;;;9.50;6.50;;;13.40;33.70;;;;;;5049232;28;20918;-87
2021/04/27 10:40:07;;;;;;;7.73;6.77;;;13.50;33.50;;;;;;5006384;28;20449;-86
2021/04/27 10:42:51;;;;;;;7.90;6.13;;;13.80;33.90;;;;;;5034283;28;20616;-88
2021/04/27 10:45:39;;;;;;;8.63;6.00;;;13.60;33.80;;;;;;5042323;28;20542;-82
2021/04/27 10:48:31;;;;;;;7.50;6.50;;;14.10;33.60;;;;;;5041429;28;20463;-87
2021/04/27 10:51:42;;;;;;;7.30;6.60;;;14.00;32.90;;;;;;5042860;28;20517;-87
2021/04/27 10:57:23;;;;;;;6.67;6.00;;;14.30;34.00;;;;;;5041633;28;20369;-79
2021/04/27 11:00:02;;;;;;;9.33;6.80;;;14.00;33.20;;;;;;5038745;28;20487;-79
2021/04/27 11:02:39;;;;;;;7.93;6.65;;;14.20;33.40;;;;;;5036763;28;20448;-79
2021/04/27 11:05:27;;;;;;;7.63;6.82;;;14.10;33.90;;;;;;5038203;28;20809;-83
2021/04/27 11:08:19;;;;;;;9.30;7.70;;;14.30;33.80;;;;;;5043955;28;20551;-83
2021/04/27 11:11:22;;;;;;;7.70;6.90;;;14.20;33.70;;;;;;5041499;28;20542;-80
2021/04/27 11:14:13;;;;;;;7.83;6.63;;;14.10;33.20;;;;;;5038381;28;20206;-82
2021/04/27 11:16:53;;;;;;;6.73;6.13;;;14.30;33.40;;;;;;5046932;28;20530;-81
2021/04/27 11:19:46;;;;;;;8.17;5.93;;;14.30;33.30;;;;;;5041369;28;20851;-81
2021/04/27 11:22:25;;;;;;;8.30;6.73;;;14.30;32.90;;;;;;5041961;28;20459;-81
2021/04/27 11:25:05;;;;;;;7.83;7.00;;;14.40;32.70;;;;;;5042681;28;20491;-86
2021/04/27 11:27:45;;;;;;;7.43;6.70;;;14.50;33.70;;;;;;5042992;28;20456;-81
2021/04/27 11:30:22;;;;;;;7.40;6.70;;;14.40;33.20;;;;;;5041384;28;20491;-81
2021/04/27 11:33:09;;;;;;;9.80;6.97;;;14.10;32.80;;;;;;5039084;28;20964;-82
2021/04/27 11:36:05;;;;;;;12.30;6.67;;;14.50;33.20;;;;;;5038596;28;20524;-82
2021/04/27 11:38:40;;;;;;;7.13;6.43;;;14.50;33.20;;;;;;5039431;28;20459;-82
2021/04/27 11:41:15;;;;;;;9.37;7.07;;;14.80;33.70;;;;;;5044890;28;20451;-83
2021/04/27 11:44:15;;;;;;;7.23;6.50;;;14.50;32.90;;;;;;5050051;28;20472;-84
2021/04/27 11:47:06;;;;;;;10.57;7.23;;;14.90;33.30;;;;;;5041785;28;20507;-82
2021/04/27 11:50:07;;;;;;;9.33;6.10;;;14.90;32.90;;;;;;5045281;28;20445;-83
2021/04/27 11:52:54;;;;;;;7.70;5.83;;;14.80;32.80;;;;;;5016090;28;20551;-81
2021/04/27 11:55:39;;;;;;;6.93;6.13;;;14.90;31.70;;;;;;5052061;28;20543;-83
2021/04/27 11:58:18;;;;;;;7.40;6.00;;;14.60;31.90;;;;;;5046883;28;20479;-85
2021/04/27 12:00:54;;;;;;;7.00;5.97;;;14.80;31.80;;;;;;5038896;28;20463;-82
2021/04/27 12:03:29;;;;;;;7.10;6.40;;;15.50;32.60;;;;;;5042342;28;20460;-84
2021/04/27 12:06:13;;;;;;;7.00;5.77;;;14.50;31.70;;;;;;5039607;28;20464;-82
2021/04/27 12:08:52;;;;;;;6.60;5.80;;;15.10;32.20;;;;;;5040220;28;20450;-82
2021/04/27 12:11:29;;;;;;;7.40;5.77;;;15.10;32.20;;;;;;5043963;28;20492;-82
2021/04/27 12:16:53;;;;;;;10.17;6.13;;;15.10;32.80;;;;;;5037747;28;20459;-82
2021/04/27 12:19:26;;;;;;;13.30;6.90;;;15.60;33.10;;;;;;5042014;28;20479;-83
2021/04/27 12:22:08;;;;;;;6.70;6.00;;;15.40;33.00;;;;;;5040117;28;20452;-81
2021/04/27 12:24:44;;;;;;;6.17;5.67;;;15.40;33.20;;;;;;5043841;28;20482;-86
2021/04/27 12:27:23;;;;;;;8.57;6.70;;;15.30;33.00;;;;;;5047908;28;20460;-83
2021/04/27 12:30:06;;;;;;;7.70;6.70;;;15.30;32.70;;;;;;5035568;28;20548;-81
2021/04/27 12:32:49;;;;;;;7.00;6.27;;;15.60;32.80;;;;;;5042811;28;20467;-84
2021/04/27 12:35:32;;;;;;;6.17;5.50;;;15.10;32.40;;;;;;5044483;28;20982;-80
2021/04/27 12:38:10;;;;;;;6.17;5.57;;;15.30;32.70;;;;;;5046475;28;20455;-81
2021/04/27 12:40:53;;;;;;;8.60;6.20;;;15.30;32.30;;;;;;5044037;28;20506;-82
2021/04/27 12:43:42;;;;;;;7.50;6.40;;;15.20;32.50;;;;;;5047247;28;20464;-82
2021/04/27 12:46:23;;;;;;;6.17;5.57;;;15.40;32.70;;;;;;5041079;28;20513;-82
2021/04/27 12:48:57;;;;;;;6.17;5.67;;;15.70;33.10;;;;;;5046993;28;20528;-81
2021/04/27 12:52:11;;;;;;;8.27;6.10;;;16.00;32.70;;;;;;5048330;28;20491;-83
2021/04/27 12:55:06;;;;;;;8.27;5.80;;;15.70;32.50;;;;;;5039126;28;20476;-83
2021/04/27 12:57:48;;;;;;;7.30;6.20;;;16.10;32.40;;;;;;5046165;28;20208;-79
2021/04/27 13:00:32;;;;;;;10.65;6.15;;;16.20;32.40;;;;;;5051010;28;20460;-81
2021/04/27 13:03:21;;;;;;;9.27;5.77;;;15.80;31.70;;;;;;5052208;28;20235;-82
2021/04/27 13:06:08;;;;;;;7.97;5.83;;;16.00;32.50;;;;;;5046574;28;20452;-87
2021/04/27 13:08:50;;;;;;;7.00;6.00;;;15.70;32.10;;;;;;5044851;28;20530;-81
2021/04/27 13:11:29;;;;;;;7.50;5.77;;;15.80;32.60;;;;;;5044392;28;20214;-84
2021/04/27 13:14:22;;;;;;;6.20;5.60;;;16.10;32.50;;;;;;5045511;28;20461;-79
2021/04/27 13:17:13;;;;;;;7.18;6.35;;;16.30;32.80;;;;;;5040601;28;20481;-86
2021/04/27 13:20:00;;;;;;;7.50;6.00;;;15.80;32.20;;;;;;5041389;28;20207;-86
2021/04/27 13:22:40;;;;;;;7.30;5.67;;;16.00;32.70;;;;;;5034292;28;20544;-87
2021/04/27 13:25:32;;;;;;;9.77;5.83;;;15.90;32.60;;;;;;5041945;28;20472;-87
2021/04/27 13:28:24;;;;;;;6.20;5.60;;;15.40;31.90;;;;;;5040164;28;20469;-87
2021/04/27 13:31:00;;;;;;;7.67;6.00;;;16.30;33.40;;;;;;5040059;28;20564;-81
2021/04/27 13:33:38;;;;;;;6.93;6.23;;;16.10;33.10;;;;;;5040408;28;20970;-80
2021/04/27 13:36:19;;;;;;;7.23;6.53;;;15.80;33.20;;;;;;5040453;28;20476;-82
2021/04/27 13:38:54;;;;;;;12.50;6.63;;;15.50;32.40;;;;;;5038481;28;20457;-81
2021/04/27 13:41:38;;;;;;;5.77;5.10;;;15.40;32.30;;;;;;5042443;28;20446;-80
2021/04/27 13:44:20;;;;;;;6.87;5.60;;;16.00;32.40;;;;;;5031918;28;20456;-79
2021/04/27 13:46:56;;;;;;;9.47;6.07;;;15.90;31.80;;;;;;5041880;28;20985;-79
2021/04/27 13:49:32;;;;;;;8.30;5.70;;;16.20;32.20;;;;;;5042826;28;20460;-79
2021/04/27 13:54:58;;;;;;;6.27;5.67;;;;;;;;;;5030971;28;20463;-77
2021/04/27 13:57:34;;;;;;;6.10;5.50;;;16.10;31.60;;;;;;5040727;28;20451;-80
2021/04/27 14:00:15;;;;;;;6.53;5.50;;;16.20;32.30;;;;;;5039329;28;20456;-79
2021/04/27 14:02:58;;;;;;;6.30;5.30;;;16.30;32.70;;;;;;5036774;28;20524;-81
2021/04/27 14:05:33;;;;;;;5.90;5.30;;;16.20;32.40;;;;;;5042631;28;20461;-81